Time;durP1;ratioP1;P1;durP2;ratioP2;P2;SDS_P1;SDS_P2;PMS_P1;PMS_P2;Temp;Humidity;BMP_temperature;BMP_pressure;BME280_temperature;BME280_humidity;BME280_pressure;Samples;Min_cycle;Max_cycle;Signal;HPM_P1;HPM_P2
2021/03/12 00:00:48;;;;;;;;;60.75;42.75;;;;;6.29;46.76;99071.44;5014093;28;8861;-55
2021/03/12 00:03:21;;;;;;;;;47.00;37.75;;;;;6.20;48.06;99066.59;5013410;28;8820;-58
2021/03/12 00:05:54;;;;;;;;;55.50;37.25;;;;;6.29;47.93;99070.53;5013673;28;8839;-59
2021/03/12 00:08:32;;;;;;;;;45.25;40.50;;;;;6.33;46.69;99072.97;5012992;28;8870;-58
2021/03/12 00:10:59;;;;;;;;;46.25;36.75;;;;;6.34;47.55;99068.50;5014455;28;8843;-57
2021/03/12 00:13:27;;;;;;;;;55.50;39.50;;;;;6.45;47.70;99065.25;5014436;28;8846;-58
2021/03/12 00:15:54;;;;;;;;;49.25;39.25;;;;;6.33;47.22;99074.78;5014026;28;8891;-58
2021/03/12 00:18:39;;;;;;;;;47.50;39.25;;;;;6.25;47.82;99074.34;4996405;28;8839;-58
2021/03/12 00:21:08;;;;;;;;;49.25;37.00;;;;;6.26;48.49;99074.25;5013812;28;8921;-58
2021/03/12 00:23:37;;;;;;;;;47.25;37.75;;;;;6.13;50.32;99070.50;5012820;28;8819;-59
2021/03/12 00:26:04;;;;;;;;;51.00;40.00;;;;;5.97;53.81;99075.78;5013535;28;8859;-59
2021/03/12 00:28:32;;;;;;;;;59.50;37.50;;;;;5.68;59.02;99077.28;5010764;28;8846;-56
2021/03/12 00:31:00;;;;;;;;;60.50;43.75;;;;;5.45;62.09;99089.09;5001779;28;8843;-57
2021/03/12 00:33:28;;;;;;;;;53.00;42.00;;;;;5.23;64.23;99099.94;5012181;28;8877;-57
2021/03/12 00:35:56;;;;;;;;;60.50;46.75;;;;;5.24;65.16;99101.69;5012915;28;8831;-57
2021/03/12 00:38:23;;;;;;;;;58.75;41.00;;;;;5.18;64.35;99109.94;5013171;28;8875;-58
2021/03/12 00:41:00;;;;;;;;;59.00;43.25;;;;;5.34;64.92;99110.91;5014008;28;8831;-58
2021/03/12 00:43:30;;;;;;;;;50.25;36.00;;;;;5.48;62.08;99116.44;5012986;28;8897;-58
2021/03/12 00:46:01;;;;;;;;;53.00;45.75;;;;;5.40;62.74;99129.28;5013085;28;8835;-57
2021/03/12 00:48:29;;;;;;;;;53.00;36.25;;;;;5.54;61.23;99146.34;5013523;28;8885;-59
2021/03/12 00:50:56;;;;;;;;;51.00;43.75;;;;;5.26;63.65;99142.38;5013216;28;8957;-58
2021/03/12 00:53:23;;;;;;;;;53.25;40.75;;;;;5.16;65.10;99143.75;5013039;28;8851;-57
2021/03/12 00:55:51;;;;;;;;;57.50;43.00;;;;;5.15;65.00;99145.56;5013667;28;8924;-58
2021/03/12 00:58:21;;;;;;;;;53.00;43.50;;;;;5.14;68.00;99149.16;5013569;28;8862;-58
2021/03/12 01:00:48;;;;;;;;;61.75;45.25;;;;;5.21;65.29;99152.38;5013199;28;8840;-58
2021/03/12 01:03:15;;;;;;;;;71.25;52.75;;;;;5.11;64.87;99149.31;5012045;28;8839;-58
2021/03/12 01:05:43;;;;;;;;;71.25;51.50;;;;;5.29;64.69;99152.88;5012821;28;8835;-58
2021/03/12 01:08:12;;;;;;;;;76.50;58.25;;;;;5.15;65.36;99152.69;5012622;28;8855;-58
2021/03/12 01:10:40;;;;;;;;;68.00;48.50;;;;;4.95;68.16;99154.50;5013195;28;9552;-59
2021/03/12 01:13:08;;;;;;;;;64.25;45.25;;;;;5.12;69.53;99158.16;5012142;28;9001;-58
2021/03/12 01:15:35;;;;;;;;;65.00;46.50;;;;;5.23;67.36;99161.16;5008457;28;8827;-58
2021/03/12 01:18:03;;;;;;;;;63.00;48.50;;;;;5.17;68.44;99164.13;5012647;28;8847;-59
2021/03/12 01:20:38;;;;;;;;;63.25;45.25;;;;;4.81;70.48;99168.44;5013078;28;8969;-59
2021/03/12 01:23:08;;;;;;;;;91.50;64.25;;;;;4.60;73.52;99156.13;5012007;28;8839;-58
2021/03/12 01:25:44;;;;;;;;;64.25;43.75;;;;;4.97;70.64;99162.41;5012197;28;8831;-57
2021/03/12 01:28:12;;;;;;;;;50.00;44.50;;;;;5.04;71.97;99163.84;5013052;28;8851;-58
2021/03/12 01:30:43;;;;;;;;;63.75;46.00;;;;;4.67;75.71;99164.69;5012376;28;8870;-57
2021/03/12 01:33:11;;;;;;;;;66.00;45.50;;;;;4.51;77.85;99165.41;5013045;28;8840;-59
2021/03/12 01:35:39;;;;;;;;;63.00;47.00;;;;;4.28;79.52;99155.78;5013137;28;8847;-59
2021/03/12 01:38:07;;;;;;;;;60.00;46.00;;;;;4.32;80.19;99159.19;5013100;28;8855;-58
2021/03/12 01:40:43;;;;;;;;;74.25;53.00;;;;;4.20;80.83;99159.72;5012926;28;8883;-57
2021/03/12 01:43:10;;;;;;;;;64.50;51.50;;;;;4.09;81.08;99153.09;5012195;28;8839;-58
2021/03/12 01:45:42;;;;;;;;;54.00;45.00;;;;;4.28;81.22;99161.09;5012890;28;8853;-58
2021/03/12 01:48:13;;;;;;;;;59.00;44.75;;;;;4.23;80.36;99164.91;5013014;28;8936;-58
2021/03/12 01:50:45;;;;;;;;;68.75;48.50;;;;;3.97;82.52;99162.44;5013030;28;8854;-58
2021/03/12 01:53:15;;;;;;;;;78.25;51.25;;;;;3.76;85.08;99159.84;5012625;28;8933;-59
2021/03/12 01:55:43;;;;;;;;;77.50;59.50;;;;;3.60;86.88;99163.13;5012347;28;8843;-58
2021/03/12 01:58:11;;;;;;;;;83.00;62.25;;;;;3.46;89.02;99144.28;5012660;28;8989;-58
2021/03/12 02:00:38;;;;;;;;;73.25;51.50;;;;;3.61;88.44;99135.69;5008391;28;8895;-56
2021/03/12 02:03:10;;;;;;;;;79.50;57.75;;;;;3.64;88.96;99140.00;5010905;28;9695;-59
2021/03/12 02:05:38;;;;;;;;;86.50;59.75;;;;;3.65;88.72;99126.63;5012406;28;8858;-58
2021/03/12 02:08:08;;;;;;;;;234.75;176.75;;;;;3.74;88.77;99130.72;5012577;28;8855;-56
2021/03/12 02:10:37;;;;;;;;;95.25;69.00;;;;;3.76;88.58;99133.28;5013094;28;8867;-56
2021/03/12 02:13:46;;;;;;;;;76.25;55.00;;;;;3.81;88.32;99133.97;5012862;28;8815;-57
2021/03/12 02:16:24;;;;;;;;;67.25;53.25;;;;;3.70;88.06;99132.63;5026269;28;8831;-58
2021/03/12 02:19:14;;;;;;;;;77.00;57.00;;;;;3.64;87.69;99132.91;5013258;28;8941;-58
2021/03/12 02:21:53;;;;;;;;;76.75;55.75;;;;;3.75;87.79;99127.13;5028971;28;8928;-58
2021/03/12 02:24:41;;;;;;;;;87.25;60.75;;;;;3.75;87.73;99119.16;5016014;28;8889;-58
2021/03/12 02:27:14;;;;;;;;;86.50;61.00;;;;;3.73;88.34;99124.53;5015114;28;8831;-56
2021/03/12 02:29:51;;;;;;;;;76.50;57.00;;;;;3.83;86.14;99130.31;5015735;28;8827;-57
2021/03/12 02:32:31;;;;;;;;;70.75;53.00;;;;;3.78;86.48;99136.75;5015932;28;8839;-58
2021/03/12 02:35:06;;;;;;;;;70.00;50.00;;;;;3.79;86.95;99135.81;5008008;28;8895;-54
2021/03/12 02:37:35;;;;;;;;;73.25;58.00;;;;;3.51;88.25;99137.84;5014692;28;8843;-53
2021/03/12 02:40:06;;;;;;;;;74.25;54.75;;;;;3.51;89.33;99090.06;5013066;28;8838;-50
2021/03/12 02:42:39;;;;;;;;;79.00;56.75;;;;;3.54;89.93;99094.38;5014070;28;8837;-53
2021/03/12 02:45:10;;;;;;;;;73.25;56.00;;;;;3.49;89.20;99064.53;5012897;28;8846;-52
2021/03/12 02:47:39;;;;;;;;;71.75;53.75;;;;;3.61;89.29;99060.50;5005265;28;8893;-51
2021/03/12 02:50:09;;;;;;;;;66.75;48.75;;;;;3.40;88.56;99057.84;5012343;28;8855;-53
2021/03/12 02:52:38;;;;;;;;;72.25;49.25;;;;;3.25;90.41;99043.41;5013885;28;8849;-54
2021/03/12 02:55:08;;;;;;;;;75.00;50.25;;;;;3.15;89.63;99052.69;5014626;28;9659;-53
2021/03/12 02:57:35;;;;;;;;;69.00;50.75;;;;;3.34;89.08;99052.75;5015666;28;9615;-54
2021/03/12 03:00:06;;;;;;;;;66.75;49.75;;;;;3.24;89.36;99051.47;5014511;28;8917;-53
2021/03/12 03:02:34;;;;;;;;;70.25;51.75;;;;;3.08;89.34;99052.09;5015508;28;8832;-50
2021/03/12 03:05:05;;;;;;;;;64.50;43.25;;;;;3.00;89.23;99035.63;5013503;28;8839;-53
2021/03/12 03:07:32;;;;;;;;;70.25;53.25;;;;;3.28;88.43;99043.28;4998607;28;8858;-54
2021/03/12 03:10:00;;;;;;;;;71.75;53.00;;;;;3.28;87.83;99037.97;5014522;28;9540;-54
2021/03/12 03:12:28;;;;;;;;;64.75;50.25;;;;;3.00;89.06;99030.34;5013373;28;8965;-51
2021/03/12 03:14:59;;;;;;;;;71.50;55.75;;;;;3.15;88.33;99026.16;5014434;28;8933;-55
2021/03/12 03:17:28;;;;;;;;;69.25;52.75;;;;;2.88;89.34;99006.09;5013204;28;8831;-54
2021/03/12 03:19:58;;;;;;;;;79.25;58.75;;;;;2.96;88.59;98998.69;5013921;28;8847;-55
2021/03/12 03:22:25;;;;;;;;;39.75;31.00;;;;;2.74;89.59;98994.28;5014886;28;8881;-53
2021/03/12 03:24:52;;;;;;;;;73.25;51.75;;;;;2.53;90.39;98979.25;5013843;28;8839;-54
2021/03/12 03:27:20;;;;;;;;;82.00;56.25;;;;;2.80;88.52;98982.56;5014611;28;8850;-51
2021/03/12 03:29:47;;;;;;;;;76.75;53.00;;;;;2.92;87.32;98974.06;5014302;28;8839;-52
2021/03/12 03:32:14;;;;;;;;;77.00;50.75;;;;;2.98;86.41;98965.03;5012816;28;8935;-53
2021/03/12 03:34:43;;;;;;;;;86.75;62.75;;;;;3.04;85.06;98975.38;4990151;28;8958;-54
2021/03/12 03:37:10;;;;;;;;;95.50;71.75;;;;;3.02;84.87;98993.97;4996773;28;8888;-52
2021/03/12 03:39:39;;;;;;;;;80.00;55.50;;;;;2.92;85.81;98975.88;5013922;28;8841;-54
2021/03/12 03:42:09;;;;;;;;;75.25;53.00;;;;;3.08;84.87;98987.56;5029157;28;8869;-51
2021/03/12 03:44:38;;;;;;;;;67.50;49.25;;;;;3.10;84.32;98984.84;5014284;28;8823;-53
2021/03/12 03:47:07;;;;;;;;;73.50;51.75;;;;;3.32;84.30;99006.88;5013825;28;8896;-50
2021/03/12 03:49:37;;;;;;;;;69.25;46.75;;;;;3.39;83.53;99005.66;5014037;28;9611;-50
2021/03/12 03:52:06;;;;;;;;;70.25;52.75;;;;;3.41;84.46;99006.47;5013516;28;8958;-55
2021/03/12 03:54:34;;;;;;;;;68.50;50.75;;;;;3.62;82.94;99009.97;5014673;28;8846;-51
2021/03/12 03:57:02;;;;;;;;;69.25;51.25;;;;;3.49;82.92;99030.03;5013457;28;8824;-50
2021/03/12 03:59:31;;;;;;;;;69.75;49.00;;;;;3.63;84.51;99040.91;5013402;28;8910;-53
2021/03/12 04:02:00;;;;;;;;;65.25;46.50;;;;;3.54;84.17;99043.09;5014027;28;8859;-50
2021/03/12 04:04:28;;;;;;;;;56.50;47.00;;;;;3.89;82.75;99050.38;5014006;28;8905;-50
2021/03/12 04:06:56;;;;;;;;;64.50;48.00;;;;;3.70;82.78;99060.94;5012737;28;10031;-53
2021/03/12 04:09:23;;;;;;;;;68.75;49.75;;;;;3.99;82.36;99050.81;5013582;28;8882;-51
2021/03/12 04:11:51;;;;;;;;;67.50;48.75;;;;;3.96;83.10;99070.41;5029164;28;8843;-51
2021/03/12 04:14:35;;;;;;;;;61.00;46.25;;;;;3.89;82.47;99054.81;5014637;28;8850;-53
2021/03/12 04:17:03;;;;;;;;;64.25;50.50;;;;;3.94;81.95;99060.78;5013977;28;8835;-53
2021/03/12 04:19:32;;;;;;;;;74.50;51.50;;;;;4.00;81.47;99083.56;5013924;28;8867;-53
2021/03/12 04:22:00;;;;;;;;;63.25;45.00;;;;;4.10;81.62;99082.22;5013003;28;9604;-54
2021/03/12 04:24:28;;;;;;;;;66.50;49.00;;;;;4.05;81.87;99079.75;5013382;28;8835;-51
2021/03/12 04:26:56;;;;;;;;;65.00;47.00;;;;;4.09;82.04;99073.38;5013717;28;8847;-54
2021/03/12 04:29:24;;;;;;;;;66.50;46.25;;;;;4.32;81.06;99079.47;5013124;28;8962;-55
2021/03/12 04:31:51;;;;;;;;;62.50;51.50;;;;;4.32;80.67;99079.47;5013656;28;8858;-56
2021/03/12 04:34:18;;;;;;;;;64.00;44.25;;;;;4.52;79.27;99082.03;5013168;28;8827;-53
2021/03/12 04:36:46;;;;;;;;;67.75;47.25;;;;;4.47;80.69;99093.81;5013112;28;8855;-55
2021/03/12 04:39:14;;;;;;;;;71.25;48.00;;;;;4.30;81.31;99095.47;5012576;28;8843;-56
2021/03/12 04:41:41;;;;;;;;;66.00;46.50;;;;;4.42;81.38;99102.00;5012127;28;8861;-55
2021/03/12 04:44:10;;;;;;;;;54.75;43.50;;;;;4.66;79.97;99088.50;5013321;28;8823;-56
2021/03/12 04:46:39;;;;;;;;;63.75;45.00;;;;;4.58;81.34;99087.09;5013896;28;8882;-53
2021/03/12 04:49:09;;;;;;;;;56.75;45.00;;;;;4.53;81.73;99081.13;5012746;28;8881;-55
2021/03/12 04:51:37;;;;;;;;;66.75;50.50;;;;;4.65;81.15;99089.47;5013116;28;8863;-56
2021/03/12 04:54:14;;;;;;;;;64.50;50.00;;;;;4.59;81.88;99094.13;5013835;28;8855;-54
2021/03/12 04:56:41;;;;;;;;;55.25;46.25;;;;;4.61;82.02;99092.25;5013254;28;8839;-55
2021/03/12 04:59:10;;;;;;;;;59.75;46.25;;;;;4.65;81.56;99097.44;5013494;28;8969;-57
2021/03/12 05:01:38;;;;;;;;;61.75;42.00;;;;;4.69;82.66;99099.88;5013326;28;8870;-54
2021/03/12 05:04:07;;;;;;;;;56.75;45.25;;;;;4.66;82.75;99085.84;5012601;28;8918;-56
2021/03/12 05:06:34;;;;;;;;;63.00;47.75;;;;;4.66;83.12;99091.16;5013693;28;8883;-57
2021/03/12 05:09:01;;;;;;;;;56.00;45.25;;;;;4.73;83.18;99076.66;5012182;28;8897;-53
2021/03/12 05:11:29;;;;;;;;;61.50;48.00;;;;;4.69;83.38;99072.44;5013093;28;8832;-53
2021/03/12 05:13:56;;;;;;;;;62.00;45.25;;;;;4.73;82.72;99064.22;5013576;28;8831;-55
2021/03/12 05:16:23;;;;;;;;;57.00;41.50;;;;;4.76;83.36;99053.44;5012963;28;8851;-56
2021/03/12 05:18:50;;;;;;;;;62.50;46.25;;;;;4.75;82.99;99053.53;5013160;28;8932;-55
2021/03/12 05:21:17;;;;;;;;;60.50;46.50;;;;;4.78;83.13;99072.84;5013559;28;8838;-54
2021/03/12 05:23:44;;;;;;;;;50.50;40.75;;;;;4.85;82.71;99078.75;5013051;28;8839;-56
2021/03/12 05:26:11;;;;;;;;;50.75;44.00;;;;;4.84;83.58;99092.97;5013586;28;8859;-54
2021/03/12 05:28:38;;;;;;;;;63.00;46.75;;;;;4.87;83.70;99092.84;5013292;28;8863;-55
2021/03/12 05:31:05;;;;;;;;;48.50;39.25;;;;;5.00;82.89;99101.94;5013204;28;8847;-55
2021/03/12 05:33:32;;;;;;;;;58.00;43.50;;;;;5.15;82.79;99102.97;5012805;28;8938;-55
2021/03/12 05:35:59;;;;;;;;;49.50;40.25;;;;;5.17;82.50;99116.22;5012966;28;8934;-54
2021/03/12 05:38:26;;;;;;;;;46.75;42.00;;;;;5.19;83.99;99111.69;5012991;28;8843;-56
2021/03/12 05:40:54;;;;;;;;;50.25;38.00;;;;;5.08;84.54;99122.84;5012792;28;8889;-55
2021/03/12 05:43:21;;;;;;;;;57.25;43.25;;;;;5.25;83.86;99125.56;5012808;28;8819;-54
2021/03/12 05:45:52;;;;;;;;;60.50;47.00;;;;;5.35;84.49;99133.97;5013221;28;8831;-56
2021/03/12 05:48:20;;;;;;;;;65.75;44.50;;;;;5.29;85.84;99142.22;5012895;28;8859;-54
2021/03/12 05:50:47;;;;;;;;;56.50;44.00;;;;;5.50;84.84;99148.28;5012589;28;8957;-54
2021/03/12 05:53:15;;;;;;;;;62.25;45.25;;;;;5.42;87.36;99156.66;5015331;28;8854;-52
2021/03/12 05:55:42;;;;;;;;;45.50;36.00;;;;;5.53;87.33;99156.16;5016261;28;8918;-54
2021/03/12 05:58:09;;;;;;;;;57.25;43.75;;;;;5.78;86.65;99154.91;5015827;28;8847;-54
2021/03/12 06:00:36;;;;;;;;;58.50;40.25;;;;;5.63;88.44;99159.19;5016736;28;8843;-53
2021/03/12 06:03:05;;;;;;;;;55.50;41.25;;;;;5.69;88.57;99166.91;5016714;28;8851;-51
2021/03/12 06:05:32;;;;;;;;;65.00;48.25;;;;;5.83;88.26;99185.72;5016333;28;8835;-55
2021/03/12 06:07:59;;;;;;;;;62.00;45.00;;;;;5.88;87.82;99191.66;5017197;28;8861;-53
2021/03/12 06:10:26;;;;;;;;;64.50;44.75;;;;;5.69;88.12;99204.19;5016417;28;8867;-55
2021/03/12 06:12:55;;;;;;;;;62.75;49.00;;;;;5.59;88.94;99205.56;5016799;28;8893;-53
2021/03/12 06:15:38;;;;;;;;;53.75;44.00;;;;;5.46;89.13;99207.97;5016961;28;8870;-54
2021/03/12 06:18:25;;;;;;;;;58.00;44.00;;;;;5.48;89.04;99208.78;5015993;28;8874;-51
2021/03/12 06:20:55;;;;;;;;;54.75;43.50;;;;;5.33;89.12;99215.69;5016545;28;8858;-54
2021/03/12 06:23:40;;;;;;;;;57.75;47.00;;;;;5.13;91.65;99189.16;5016383;28;8858;-52
2021/03/12 06:26:07;;;;;;;;;64.25;51.00;;;;;5.18;92.14;99187.97;5016345;28;8835;-52
2021/03/12 06:28:34;;;;;;;;;70.50;50.50;;;;;5.31;91.91;99196.25;5016111;28;8957;-54
2021/03/12 06:31:01;;;;;;;;;72.75;52.50;;;;;5.48;90.59;99180.34;5016329;28;9600;-53
2021/03/12 06:33:34;;;;;;;;;68.75;52.50;;;;;5.44;90.37;99173.41;5015078;28;8866;-55
2021/03/12 06:36:04;;;;;;;;;61.25;48.25;;;;;5.54;90.50;99175.66;5016497;28;8879;-51
2021/03/12 06:38:35;;;;;;;;;68.75;51.75;;;;;5.73;89.49;99181.78;5015962;28;8879;-54
2021/03/12 06:41:02;;;;;;;;;59.50;46.25;;;;;5.82;88.11;99189.31;5015015;28;8865;-52
2021/03/12 06:43:29;;;;;;;;;64.25;50.50;;;;;5.83;89.37;99201.69;5016394;28;8853;-54
2021/03/12 06:46:01;;;;;;;;;70.25;49.50;;;;;6.08;88.29;99212.03;5014880;28;8929;-55
2021/03/12 06:48:33;;;;;;;;;65.50;47.50;;;;;6.51;86.61;99219.59;5016154;28;8851;-55
2021/03/12 06:51:11;;;;;;;;;54.25;42.75;;;;;6.69;87.09;99223.97;5016034;28;8978;-53
2021/03/12 06:53:45;;;;;;;;;67.50;48.50;;;;;6.98;86.69;99240.22;5015508;28;8835;-54
2021/03/12 06:56:14;;;;;;;;;58.00;45.75;;;;;7.61;85.11;99255.41;5016077;28;8839;-56
2021/03/12 06:59:04;;;;;;;;;61.00;42.50;;;;;7.59;83.62;99250.19;5015075;28;8823;-57
2021/03/12 07:01:31;;;;;;;;;50.50;39.25;;;;;7.66;83.05;99243.56;5015300;28;8827;-56
2021/03/12 07:04:29;;;;;;;;;59.50;43.75;;;;;7.95;82.23;99241.00;5015312;28;8916;-58
2021/03/12 07:06:59;;;;;;;;;62.25;45.00;;;;;8.19;81.75;99237.84;5003106;28;8871;-55
2021/03/12 07:09:29;;;;;;;;;57.67;41.00;;;;;9.31;77.75;99245.25;5015905;28;9564;-58
2021/03/12 07:12:01;;;;;;;;;58.33;41.67;;;;;10.99;71.63;99248.41;5015409;28;9016;-53
2021/03/12 07:14:30;;;;;;;;;47.33;39.00;;;;;13.47;59.28;99257.63;5015366;28;8835;-57
2021/03/12 07:16:58;;;;;;;;;36.50;32.75;;;;;12.76;62.63;99256.91;5015075;28;8843;-56
2021/03/12 07:19:25;;;;;;;;;46.00;36.75;;;;;12.14;64.87;99261.59;5014579;28;12394;-57
2021/03/12 07:21:58;;;;;;;;;44.50;36.00;;;;;11.17;67.48;99276.66;5015038;28;11591;-56
2021/03/12 07:24:27;;;;;;;;;38.00;33.67;;;;;9.08;75.42;99273.50;5014548;28;11586;-55
2021/03/12 07:26:58;;;;;;;;;40.00;36.00;;;;;8.85;77.15;99272.25;5015428;28;8862;-56
2021/03/12 07:29:28;;;;;;;;;60.33;43.67;;;;;8.70;79.35;99262.47;5014942;28;8877;-57
2021/03/12 07:32:00;;;;;;;;;43.67;39.33;;;;;9.16;77.01;99254.25;5013719;28;9549;-57
2021/03/12 07:34:34;;;;;;;;;55.00;42.33;;;;;9.08;77.74;99254.75;5014045;28;8985;-51
2021/03/12 07:37:03;;;;;;;;;41.67;35.00;;;;;9.31;76.67;99250.63;5014330;28;8832;-56
2021/03/12 07:39:42;;;;;;;;;40.33;35.00;;;;;9.30;77.13;99238.19;5013299;28;8839;-57
2021/03/12 07:42:11;;;;;;;;;52.67;37.33;;;;;9.61;76.81;99250.50;5001820;28;8863;-58
2021/03/12 07:44:47;;;;;;;;;46.33;40.00;;;;;9.54;78.63;99251.84;4994698;28;8924;-56
2021/03/12 07:47:29;;;;;;;;;42.00;30.00;;;;;9.69;77.30;99258.03;5015135;28;8831;-57
2021/03/12 07:49:56;;;;;;;;;49.33;37.33;;;;;9.96;75.50;99251.84;5014549;28;8889;-58
2021/03/12 07:52:50;;;;;;;;;43.33;35.00;;;;;9.67;76.10;99238.50;5014484;28;8839;-56
2021/03/12 07:55:36;;;;;;;;;45.00;37.00;;;;;9.87;75.46;99253.28;5014737;28;8855;-59
2021/03/12 07:58:08;;;;;;;;;37.67;34.33;;;;;10.39;75.47;99274.00;5014225;28;8851;-58
2021/03/12 08:00:56;;;;;;;;;39.33;32.00;;;;;10.43;74.69;99288.09;5011536;28;9545;-57
2021/03/12 08:03:39;;;;;;;;;41.67;32.67;;;;;10.24;73.93;99275.88;5014314;28;8839;-57
2021/03/12 08:06:18;;;;;;;;;50.67;36.00;;;;;10.37;73.20;99291.16;5009682;28;8892;-57
2021/03/12 08:08:46;;;;;;;;;41.67;36.00;;;;;10.58;73.93;99295.06;4995887;28;8889;-58
2021/03/12 08:11:38;;;;;;;;;40.33;32.00;;;;;11.10;74.60;99302.22;5013567;28;8867;-56
2021/03/12 08:14:19;;;;;;;;;40.33;36.00;;;;;11.14;73.36;99303.75;5012787;28;8855;-56
2021/03/12 08:16:58;;;;;;;;;30.67;26.00;;;;;11.13;72.46;99302.00;5013261;28;8851;-56
2021/03/12 08:19:35;;;;;;;;;26.67;24.33;;;;;11.36;71.60;99296.84;5013953;28;8866;-58
2021/03/12 08:22:28;;;;;;;;;33.00;25.00;;;;;11.32;71.92;99298.03;5014319;28;8926;-57
2021/03/12 08:24:58;;;;;;;;;30.33;29.00;;;;;11.48;70.99;99306.75;5008930;28;8969;-57
2021/03/12 08:27:42;;;;;;;;;29.67;26.67;;;;;11.72;69.69;99292.50;5013973;28;8835;-57
2021/03/12 08:30:41;;;;;;;;;28.33;24.67;;;;;11.78;70.54;99306.34;5013792;28;8866;-56
2021/03/12 08:33:21;;;;;;;;;17.67;14.00;;;;;11.82;68.66;99307.84;5014117;28;8958;-58
2021/03/12 08:35:51;;;;;;;;;24.33;23.33;;;;;11.73;67.55;99318.41;5013983;28;11525;-56
2021/03/12 08:38:27;;;;;;;;;33.67;27.33;;;;;11.68;67.61;99318.72;5013114;28;8843;-59
2021/03/12 08:41:07;;;;;;;;;27.67;21.67;;;;;12.01;67.57;99312.78;5014094;28;8881;-57
2021/03/12 08:43:42;;;;;;;;;22.33;19.00;;;;;12.25;64.47;99314.63;5013641;28;11661;-58
2021/03/12 08:46:16;;;;;;;;;27.00;21.00;;;;;13.00;64.78;99303.50;5013562;28;11663;-58
2021/03/12 08:48:48;;;;;;;;;16.25;16.25;;;;;12.45;60.86;99323.88;5013526;28;11684;-57
2021/03/12 08:51:46;;;;;;;;;20.00;17.50;;;;;12.88;62.39;99312.56;5003925;28;11625;-57
2021/03/12 08:54:13;;;;;;;;;20.75;17.50;;;;;12.87;63.39;99314.38;5011519;28;11693;-56
2021/03/12 08:56:40;;;;;;;;;18.25;17.50;;;;;12.19;63.86;99320.44;5013099;28;11668;-57
2021/03/12 08:59:07;;;;;;;;;23.50;20.50;;;;;11.71;65.99;99317.66;5012081;28;11552;-58
2021/03/12 09:01:36;;;;;;;;;27.00;19.50;;;;;11.56;64.05;99319.63;5012904;28;11605;-55
2021/03/12 09:04:06;;;;;;;;;3.00;3.00;;;;;11.28;63.16;99309.97;5013340;28;11561;-56
2021/03/12 09:06:37;;;;;;;;;12.75;10.00;;;;;11.37;60.61;99322.75;5012207;28;11604;-57
2021/03/12 09:09:27;;;;;;;;;9.25;7.00;;;;;11.30;57.69;99321.47;4952887;28;11513;-56
2021/03/12 09:15:57;;;;;;;;;5.50;5.50;;;;;12.46;52.90;99325.63;4968671;28;11542;-57
2021/03/12 09:18:38;;;;;;;;;5.25;2.25;;;;;12.79;53.89;99318.63;4954522;28;11475;-57
2021/03/12 09:21:15;;;;;;;;;4.50;2.75;;;;;12.96;53.92;99313.66;4970323;28;11476;-57
2021/03/12 09:23:47;;;;;;;;;3.75;1.00;;;;;12.87;49.50;99314.38;4970440;28;11484;-55
2021/03/12 09:26:22;;;;;;;;;4.00;4.00;;;;;12.83;50.12;99312.91;4969768;28;12566;-58
2021/03/12 09:28:53;;;;;;;;;3.25;3.25;;;;;12.95;52.04;99317.34;5010048;28;11534;-57
2021/03/12 09:31:38;;;;;;;;;2.00;2.00;;;;;12.85;49.63;99310.06;5010896;28;12798;-56
2021/03/12 09:34:09;;;;;;;;;3.00;2.00;;;;;12.92;51.94;99322.94;5011492;28;11520;-58
2021/03/12 09:36:46;;;;;;;;;4.00;2.00;;;;;12.52;48.97;99323.31;4999224;28;11524;-58
2021/03/12 09:39:23;;;;;;;;;3.00;2.75;;;;;12.66;50.18;99330.34;5010631;28;11665;-58
2021/03/12 09:41:59;;;;;;;;;3.75;2.00;;;;;12.60;49.57;99311.09;5011553;28;11515;-55
2021/03/12 09:44:28;;;;;;;;;3.00;1.50;;;;;12.81;51.00;99319.38;5009956;28;11553;-56
2021/03/12 09:46:58;;;;;;;;;3.00;2.25;;;;;12.69;49.73;99323.84;5011402;28;11581;-55
2021/03/12 09:49:42;;;;;;;;;2.25;2.00;;;;;12.83;50.35;99329.06;5011121;28;11518;-54
2021/03/12 09:52:14;;;;;;;;;2.75;2.75;;;;;12.86;48.15;99334.22;5010526;28;11508;-56
2021/03/12 09:54:43;;;;;;;;;5.00;3.25;;;;;13.50;49.34;99328.34;5011185;28;11616;-57
2021/03/12 09:57:18;;;;;;;;;2.25;2.00;;;;;13.95;49.64;99349.06;5010303;28;11552;-57
2021/03/12 09:59:50;;;;;;;;;4.00;3.00;;;;;13.54;48.30;99340.63;5009992;28;11497;-57
2021/03/12 10:02:20;;;;;;;;;4.00;2.25;;;;;13.63;47.39;99349.81;5010244;28;11541;-58
2021/03/12 10:05:04;;;;;;;;;3.00;3.00;;;;;13.34;47.95;99342.19;5010366;28;11572;-58
2021/03/12 10:07:43;;;;;;;;;4.00;3.25;;;;;13.60;47.26;99347.38;5010917;28;12403;-58
2021/03/12 10:10:36;;;;;;;;;4.00;3.00;;;;;13.95;47.03;99354.47;5006495;28;11526;-57
2021/03/12 10:13:06;;;;;;;;;4.50;4.00;;;;;14.00;47.22;99363.03;5009057;28;11584;-56
2021/03/12 10:15:39;;;;;;;;;3.00;3.00;;;;;13.86;47.86;99358.78;5010531;28;11517;-56
2021/03/12 10:18:17;;;;;;;;;2.75;2.75;;;;;13.13;48.73;99354.63;5010906;28;11545;-58
2021/03/12 10:20:44;;;;;;;;;4.00;2.25;;;;;12.69;49.58;99361.56;5010516;28;11509;-58
2021/03/12 10:23:12;;;;;;;;;7.00;7.00;;;;;12.92;47.07;99359.81;5010867;28;11494;-58
2021/03/12 10:25:45;;;;;;;;;2.00;2.00;;;;;12.49;49.34;99358.56;5010839;28;11553;-55
2021/03/12 10:28:19;;;;;;;;;4.00;2.00;;;;;13.02;48.53;99370.75;5004164;28;11504;-54
2021/03/12 10:30:59;;;;;;;;;3.00;1.75;;;;;13.45;46.67;99353.97;5010579;28;11566;-56
2021/03/12 10:33:30;;;;;;;;;1.00;1.00;;;;;13.05;45.76;99357.91;5010023;28;11595;-58
2021/03/12 10:36:04;;;;;;;;;2.75;2.00;;;;;12.96;45.56;99359.47;5004218;28;11547;-56
2021/03/12 10:38:35;;;;;;;;;0.00;0.00;;;;;13.15;45.70;99356.22;5010823;28;11538;-56
2021/03/12 10:41:25;;;;;;;;;3.00;2.00;;;;;13.50;44.95;99354.47;5014260;28;11540;-58
2021/03/12 10:44:02;;;;;;;;;1.50;1.25;;;;;13.48;45.66;99346.50;5014423;28;11630;-54
2021/03/12 10:46:31;;;;;;;;;3.50;1.00;;;;;13.80;45.55;99357.44;5014211;28;11611;-58
2021/03/12 10:48:59;;;;;;;;;1.00;1.00;;;;;13.94;45.63;99355.47;5014041;28;11484;-54
2021/03/12 10:51:40;;;;;;;;;2.50;0.75;;;;;14.22;45.61;99368.44;5013173;28;11559;-53
2021/03/12 10:54:08;;;;;;;;;1.00;1.00;;;;;13.59;45.87;99353.75;5014318;28;11513;-56
2021/03/12 10:56:47;;;;;;;;;3.75;2.00;;;;;13.51;45.02;99361.59;5014330;28;11525;-55
2021/03/12 10:59:14;;;;;;;;;0.00;0.00;;;;;13.66;44.28;99354.97;5014021;28;12349;-54
2021/03/12 11:01:45;;;;;;;;;2.00;1.00;;;;;12.93;43.31;99351.63;5013615;28;12264;-54
2021/03/12 11:04:14;;;;;;;;;2.00;1.00;;;;;13.38;43.15;99365.25;5013943;28;11600;-57
2021/03/12 11:06:42;;;;;;;;;2.25;1.00;;;;;13.13;41.74;99368.09;5008291;28;11652;-56
2021/03/12 11:09:10;;;;;;;;;4.75;2.00;;;;;13.32;43.10;99363.03;5013906;28;11591;-54
2021/03/12 11:11:38;;;;;;;;;1.00;1.00;;;;;13.73;41.42;99356.19;5013011;28;11564;-58
2021/03/12 11:14:06;;;;;;;;;1.25;1.00;;;;;13.96;41.89;99361.59;5013498;28;11495;-57
2021/03/12 11:16:33;;;;;;;;;2.00;1.75;;;;;14.26;42.35;99352.81;5013140;28;11595;-57
2021/03/12 11:19:00;;;;;;;;;1.00;1.00;;;;;13.36;40.86;99347.47;5013423;28;11504;-57
2021/03/12 11:21:32;;;;;;;;;3.00;1.00;;;;;14.02;42.16;99361.94;5012716;28;11588;-53
2021/03/12 11:23:59;;;;;;;;;1.00;1.00;;;;;13.67;40.60;99343.22;5012429;28;11509;-59
2021/03/12 11:26:28;;;;;;;;;2.00;1.00;;;;;13.67;40.90;99345.91;5013704;28;11517;-53
2021/03/12 11:28:55;;;;;;;;;1.00;1.00;;;;;13.41;39.72;99358.75;5013262;28;12276;-58
2021/03/12 11:31:25;;;;;;;;;1.75;1.00;;;;;13.64;39.74;99345.28;5013321;28;11532;-56
2021/03/12 11:33:51;;;;;;;;;0.25;0.25;;;;;13.23;38.62;99342.16;5012615;28;11500;-54
2021/03/12 11:36:18;;;;;;;;;1.00;1.00;;;;;13.51;38.57;99340.03;5013043;28;11493;-56
2021/03/12 11:38:45;;;;;;;;;1.00;1.00;;;;;13.93;39.61;99343.81;5013371;28;11637;-56
2021/03/12 11:41:12;;;;;;;;;2.75;0.75;;;;;13.83;40.55;99340.13;5013043;28;11549;-56
2021/03/12 11:43:40;;;;;;;;;3.25;3.00;;;;;14.24;40.63;99343.97;5012926;28;11603;-54
2021/03/12 11:46:07;;;;;;;;;10.25;6.50;;;;;14.07;40.59;99331.88;5013784;28;11522;-57
2021/03/12 11:48:34;;;;;;;;;4.00;3.00;;;;;13.94;41.00;99344.66;5013171;28;11523;-57
2021/03/12 11:51:01;;;;;;;;;2.00;1.25;;;;;13.77;39.91;99338.78;5012569;28;11519;-53
2021/03/12 11:53:30;;;;;;;;;2.50;2.00;;;;;13.89;41.37;99344.19;5012141;28;11554;-56
2021/03/12 11:55:58;;;;;;;;;1.00;0.00;;;;;13.80;40.81;99345.78;5013278;28;11533;-56